createdAt,value
2023-09-03T00:00:55.796Z,90.38
2023-09-03T00:03:44.578Z,90.56
2023-09-03T00:06:12.668Z,90.94
2023-09-03T00:08:40.738Z,90.76
2023-09-03T00:11:09.011Z,90.78
2023-09-03T00:13:37.081Z,90.64
2023-09-03T00:16:05.186Z,90.56
2023-09-03T00:18:33.857Z,90.40
2023-09-03T00:21:06.595Z,90.31
2023-09-03T00:23:34.852Z,90.12
2023-09-03T00:26:03.553Z,89.84
2023-09-03T00:28:32.391Z,89.72
2023-09-03T00:31:05.309Z,89.58
2023-09-03T00:33:33.542Z,89.67
2023-09-03T00:36:03.666Z,89.75
2023-09-03T00:38:32.916Z,89.71
2023-09-03T00:41:00.981Z,89.58
2023-09-03T00:43:29.175Z,89.61
2023-09-03T00:45:58.038Z,89.61
2023-09-03T00:48:30.271Z,89.71
2023-09-03T00:51:03.144Z,89.71
2023-09-03T00:53:32.428Z,89.65
2023-09-03T00:56:00.891Z,89.73
2023-09-03T00:58:29.182Z,89.74
2023-09-03T01:00:58.315Z,89.73
2023-09-03T01:03:27.516Z,89.80
2023-09-03T01:05:55.800Z,89.74
2023-09-03T01:08:24.977Z,89.43
2023-09-03T01:11:05.401Z,89.42
2023-09-03T01:13:46.079Z,89.53
2023-09-03T01:16:26.240Z,89.76
2023-09-03T01:18:56.753Z,89.90
2023-09-03T01:21:49.915Z,90.14
2023-09-03T01:24:46.752Z,89.80
2023-09-03T01:27:59.720Z,89.60
2023-09-03T01:33:45.630Z,89.78
2023-09-03T01:36:15.598Z,90.06
2023-09-03T01:38:43.739Z,90.36
2023-09-03T01:41:12.105Z,90.61
2023-09-03T01:43:40.405Z,90.75
2023-09-03T01:46:19.844Z,90.41
2023-09-03T01:49:12.719Z,90.33
2023-09-03T01:52:02.785Z,90.58
2023-09-03T01:54:35.796Z,90.43
2023-09-03T01:57:13.844Z,90.32
2023-09-03T01:59:49.746Z,90.38
2023-09-03T02:02:19.827Z,90.37
2023-09-03T02:04:48.102Z,90.41
2023-09-03T02:07:16.455Z,90.28
2023-09-03T02:09:44.520Z,90.11
2023-09-03T02:12:12.538Z,90.26
2023-09-03T02:14:40.498Z,90.00
2023-09-03T02:17:10.426Z,89.98
2023-09-03T02:19:38.492Z,90.18
2023-09-03T02:22:06.508Z,90.16
2023-09-03T02:24:34.443Z,90.25
2023-09-03T02:27:02.506Z,90.29
2023-09-03T02:29:30.536Z,90.31
2023-09-03T02:31:58.589Z,90.46
2023-09-03T02:34:27.492Z,90.42
2023-09-03T02:36:55.767Z,90.36
2023-09-03T02:39:24.332Z,90.40
2023-09-03T02:41:53.437Z,90.18
2023-09-03T02:44:22.772Z,90.07
2023-09-03T02:46:51.413Z,89.78
2023-09-03T02:49:19.417Z,89.86
2023-09-03T02:51:47.572Z,89.95
2023-09-03T02:54:15.841Z,89.96
2023-09-03T02:56:44.003Z,89.87
2023-09-03T02:59:12.181Z,89.90
2023-09-03T03:01:41.281Z,89.94
2023-09-03T03:04:10.265Z,89.80
2023-09-03T03:06:38.288Z,89.92
2023-09-03T03:09:06.341Z,89.88
2023-09-03T03:11:34.725Z,89.97
2023-09-03T03:14:03.585Z,89.84
2023-09-03T03:16:34.712Z,89.89
2023-09-03T03:19:06.165Z,89.78
2023-09-03T03:21:37.259Z,89.99
2023-09-03T03:24:07.106Z,89.98
2023-09-03T03:26:39.662Z,89.91
2023-09-03T03:29:11.020Z,89.80
2023-09-03T03:31:45.050Z,89.74
2023-09-03T03:34:13.626Z,89.73
2023-09-03T03:36:42.733Z,89.67
2023-09-03T03:39:10.910Z,89.51
2023-09-03T03:41:39.528Z,89.55
2023-09-03T03:44:11.133Z,89.47
2023-09-03T03:46:39.627Z,89.51
2023-09-03T03:49:07.686Z,89.40
2023-09-03T03:51:36.333Z,89.17
2023-09-03T03:54:05.691Z,89.20
2023-09-03T03:56:34.398Z,89.37
2023-09-03T03:59:02.734Z,89.50
2023-09-03T04:01:31.219Z,89.55
2023-09-03T04:03:59.798Z,89.71
2023-09-03T04:06:29.211Z,89.89
2023-09-03T04:08:57.584Z,89.95
2023-09-03T04:11:26.062Z,90.01
2023-09-03T04:13:54.202Z,90.22
2023-09-03T04:16:26.077Z,90.28
2023-09-03T04:18:54.684Z,90.09
2023-09-03T04:21:22.945Z,89.96
2023-09-03T04:23:51.042Z,89.94
2023-09-03T04:26:19.291Z,90.29
2023-09-03T04:28:51.364Z,90.24
2023-09-03T04:31:19.506Z,90.34
2023-09-03T04:33:47.789Z,90.30
2023-09-03T04:36:15.926Z,90.21
2023-09-03T04:38:44.174Z,90.15
2023-09-03T04:41:14.810Z,90.15
2023-09-03T04:43:49.548Z,90.14
2023-09-03T04:46:23.400Z,89.86
2023-09-03T04:48:51.456Z,89.61
2023-09-03T04:51:19.598Z,89.50
2023-09-03T04:53:49.728Z,89.09
2023-09-03T04:56:18.208Z,89.10
2023-09-03T04:58:47.653Z,88.90
2023-09-03T05:01:16.461Z,88.69
2023-09-03T05:03:46.193Z,88.84
2023-09-03T05:06:17.073Z,88.46
2023-09-03T05:08:46.871Z,87.41
2023-09-03T05:11:17.943Z,86.40
2023-09-03T05:13:47.865Z,84.70
2023-09-03T05:16:17.908Z,83.29
2023-09-03T05:18:46.262Z,82.59
2023-09-03T05:21:15.351Z,82.07
2023-09-03T05:23:43.749Z,81.42
2023-09-03T05:26:12.053Z,79.49
2023-09-03T05:28:42.157Z,77.77
2023-09-03T05:31:11.975Z,74.90
2023-09-03T05:33:40.979Z,71.44
2023-09-03T05:36:09.703Z,68.71
2023-09-03T05:38:37.735Z,66.82
2023-09-03T05:41:05.758Z,65.82
2023-09-03T05:43:33.843Z,65.03
2023-09-03T05:46:02.168Z,65.02
2023-09-03T05:48:31.512Z,64.86
2023-09-03T05:51:05.450Z,64.82
2023-09-03T05:53:36.392Z,65.14
2023-09-03T05:56:06.366Z,65.83
2023-09-03T05:58:34.649Z,66.23
2023-09-03T06:01:08.188Z,66.58
2023-09-03T06:03:36.930Z,66.85
2023-09-03T06:06:10.153Z,67.61
2023-09-03T06:08:39.513Z,68.53
2023-09-03T06:11:07.545Z,68.66
2023-09-03T06:13:35.655Z,68.72
2023-09-03T06:16:03.877Z,68.77
2023-09-03T06:18:32.083Z,69.04
2023-09-03T06:21:00.097Z,69.22
2023-09-03T06:23:28.245Z,68.93
2023-09-03T06:25:56.339Z,69.57
2023-09-03T06:28:25.014Z,69.47
2023-09-03T06:30:53.857Z,69.41
2023-09-03T06:33:21.884Z,70.02
2023-09-03T06:35:49.911Z,70.55
2023-09-03T06:38:18.095Z,70.76
2023-09-03T06:40:46.362Z,70.73
2023-09-03T06:43:14.345Z,70.96
2023-09-03T06:45:42.493Z,71.75
2023-09-03T06:48:10.675Z,71.74
2023-09-03T06:50:42.692Z,72.04
2023-09-03T06:53:12.137Z,72.50
2023-09-03T06:55:40.118Z,72.50
2023-09-03T06:58:08.194Z,72.67
2023-09-03T07:00:36.399Z,73.05
2023-09-03T07:03:04.889Z,72.89
2023-09-03T07:05:33.009Z,73.90
2023-09-03T07:08:01.095Z,74.92
2023-09-03T07:10:29.201Z,74.10
2023-09-03T07:12:57.210Z,73.50
2023-09-03T07:15:25.506Z,73.01
2023-09-03T07:17:53.585Z,73.06
2023-09-03T07:20:21.938Z,73.18
2023-09-03T07:22:50.114Z,73.87
2023-09-03T07:25:18.383Z,73.87
2023-09-03T07:27:46.785Z,74.40
2023-09-03T07:30:14.947Z,75.84
2023-09-03T07:32:43.237Z,75.34
2023-09-03T07:35:12.016Z,74.71
2023-09-03T07:37:40.207Z,74.51
2023-09-03T07:40:09.533Z,75.08
2023-09-03T07:42:37.553Z,75.17
2023-09-03T07:45:06.036Z,75.47
2023-09-03T07:47:34.223Z,74.89
2023-09-03T07:50:02.699Z,74.58
2023-09-03T07:52:30.955Z,74.75
2023-09-03T07:54:59.019Z,75.17
2023-09-03T07:57:29.247Z,74.72
2023-09-03T07:59:57.475Z,73.70
2023-09-03T08:02:25.476Z,73.52
2023-09-03T08:04:53.555Z,73.16
2023-09-03T08:07:21.724Z,73.50
2023-09-03T08:09:50.514Z,72.88
2023-09-03T08:12:18.508Z,71.96
2023-09-03T08:14:49.933Z,70.99
2023-09-03T08:17:18.109Z,71.69
2023-09-03T08:19:46.449Z,71.61
2023-09-03T08:22:14.661Z,70.84
2023-09-03T08:24:42.770Z,70.34
2023-09-03T08:27:10.798Z,70.73
2023-09-03T08:29:38.834Z,70.21
2023-09-03T08:32:07.561Z,69.81
2023-09-03T08:34:35.566Z,70.11
2023-09-03T08:37:03.918Z,70.00
2023-09-03T08:39:32.385Z,69.75
2023-09-03T08:42:00.954Z,67.78
2023-09-03T08:44:46.832Z,66.67
2023-09-03T08:47:18.309Z,66.13
2023-09-03T08:49:46.957Z,66.17
2023-09-03T08:52:17.348Z,67.02
2023-09-03T08:54:46.259Z,66.41
2023-09-03T08:57:14.465Z,64.64
2023-09-03T08:59:42.651Z,63.16
2023-09-03T09:02:14.552Z,62.97
2023-09-03T09:04:43.083Z,62.11
2023-09-03T09:07:11.357Z,61.05
2023-09-03T09:09:41.072Z,61.30
2023-09-03T09:12:34.739Z,60.15
2023-09-03T09:15:05.948Z,60.75
2023-09-03T09:17:41.482Z,60.54
2023-09-03T09:20:14.093Z,59.85
2023-09-03T09:22:49.970Z,60.24
2023-09-03T09:25:23.209Z,59.27
2023-09-03T09:27:54.236Z,58.18
2023-09-03T09:30:26.140Z,58.35
2023-09-03T09:33:08.785Z,57.99
2023-09-03T09:35:37.261Z,57.29
2023-09-03T09:38:06.983Z,55.71
2023-09-03T09:40:38.362Z,55.61
2023-09-03T09:43:10.793Z,55.03
2023-09-03T09:45:53.417Z,54.64
2023-09-03T09:48:21.654Z,54.81
2023-09-03T09:50:50.034Z,54.35
2023-09-03T09:53:24.960Z,54.26
2023-09-03T09:56:04.456Z,54.84
2023-09-03T09:58:37.344Z,52.94
2023-09-03T10:01:06.719Z,52.65
2023-09-03T10:03:46.377Z,52.04
2023-09-03T10:06:16.016Z,52.09
2023-09-03T10:08:51.553Z,51.23
2023-09-03T10:11:21.014Z,50.69
2023-09-03T10:13:50.415Z,49.26
2023-09-03T10:16:21.013Z,48.61
2023-09-03T10:18:51.488Z,49.57
2023-09-03T10:21:46.621Z,49.64
2023-09-03T10:24:18.941Z,50.77
2023-09-03T10:26:52.307Z,50.19
2023-09-03T10:29:23.127Z,50.97
2023-09-03T10:31:53.403Z,51.23
2023-09-03T10:34:21.956Z,50.21
2023-09-03T10:37:09.390Z,49.78
2023-09-03T10:39:39.908Z,50.51
2023-09-03T10:42:17.503Z,51.40
2023-09-03T10:44:51.625Z,52.16
2023-09-03T10:47:20.295Z,52.02
2023-09-03T10:49:50.907Z,53.13
2023-09-03T10:52:33.274Z,53.12
2023-09-03T10:55:21.458Z,54.26
2023-09-03T10:58:24.793Z,54.25
2023-09-03T11:01:27.846Z,55.41
2023-09-03T11:03:56.077Z,56.06
2023-09-03T11:06:29.135Z,55.09
2023-09-03T11:09:00.004Z,54.45
2023-09-03T11:11:34.847Z,54.21
2023-09-03T11:14:04.271Z,54.62
2023-09-03T11:16:41.625Z,54.69
2023-09-03T11:19:10.056Z,54.88
2023-09-03T11:21:39.086Z,55.31
2023-09-03T11:24:20.029Z,55.45
2023-09-03T11:27:05.037Z,54.54
2023-09-03T11:29:33.309Z,56.22
2023-09-03T11:32:01.848Z,56.18
2023-09-03T11:34:30.902Z,55.52
2023-09-03T11:36:59.353Z,55.94
2023-09-03T11:39:28.053Z,55.81
2023-09-03T11:41:56.330Z,56.74
2023-09-03T11:44:25.980Z,56.24
2023-09-03T11:47:02.296Z,56.19
2023-09-03T11:49:30.634Z,55.47
2023-09-03T11:52:14.125Z,55.10
2023-09-03T11:54:43.384Z,56.14
2023-09-03T11:57:16.860Z,55.90
2023-09-03T11:59:45.243Z,56.67
2023-09-03T12:02:14.240Z,55.93
2023-09-03T12:04:44.289Z,55.24
2023-09-03T12:07:17.770Z,54.84
2023-09-03T12:09:49.325Z,55.52
2023-09-03T12:12:18.261Z,55.62
2023-09-03T12:14:46.436Z,55.70
2023-09-03T12:17:27.792Z,56.01
2023-09-03T12:19:56.412Z,56.78
2023-09-03T12:22:24.588Z,57.49
2023-09-03T12:24:54.830Z,57.72
2023-09-03T12:27:23.126Z,58.18
2023-09-03T12:29:56.589Z,58.86
2023-09-03T12:32:38.874Z,58.76
2023-09-03T12:35:17.649Z,58.58
2023-09-03T12:37:46.454Z,58.93
2023-09-03T12:40:14.799Z,58.75
2023-09-03T12:42:42.972Z,58.28
2023-09-03T12:45:11.460Z,58.33
2023-09-03T12:47:39.670Z,57.71
2023-09-03T12:50:09.053Z,57.89
2023-09-03T12:52:37.348Z,58.28
2023-09-03T12:55:06.263Z,58.85
2023-09-03T12:57:34.429Z,58.03
2023-09-03T13:00:06.356Z,58.89
2023-09-03T13:02:35.077Z,58.70
2023-09-03T13:05:03.470Z,57.77
2023-09-03T13:07:31.666Z,57.20
2023-09-03T13:09:59.825Z,57.15
2023-09-03T13:12:27.827Z,57.00
2023-09-03T13:14:56.058Z,56.92
2023-09-03T13:17:26.055Z,57.37
2023-09-03T13:19:54.372Z,58.07
2023-09-03T13:22:22.486Z,58.89
2023-09-03T13:24:50.684Z,59.38
2023-09-03T13:27:18.756Z,59.74
2023-09-03T13:29:46.824Z,60.44
2023-09-03T13:32:15.417Z,61.36
2023-09-03T13:34:44.806Z,62.40
2023-09-03T13:37:12.881Z,63.68
2023-09-03T13:39:41.157Z,64.85
2023-09-03T13:42:09.327Z,65.71
2023-09-03T13:44:37.506Z,65.74
2023-09-03T13:47:07.215Z,65.68
2023-09-03T13:49:35.248Z,65.96
2023-09-03T13:52:04.001Z,66.31
2023-09-03T13:54:32.458Z,66.58
2023-09-03T13:57:00.630Z,67.06
2023-09-03T13:59:28.794Z,67.61
2023-09-03T14:01:56.979Z,68.11
2023-09-03T14:04:24.982Z,68.79
2023-09-03T14:06:53.119Z,69.07
2023-09-03T14:09:21.180Z,69.36
2023-09-03T14:11:49.157Z,69.23
2023-09-03T14:14:17.327Z,68.87
2023-09-03T14:16:45.341Z,69.21
2023-09-03T14:19:13.663Z,69.53
2023-09-03T14:21:41.978Z,69.82
2023-09-03T14:24:10.046Z,70.47
2023-09-03T14:26:38.191Z,70.73
2023-09-03T14:29:11.175Z,70.52
2023-09-03T14:31:41.838Z,70.10
2023-09-03T14:34:09.853Z,70.18
2023-09-03T14:36:37.799Z,70.26
2023-09-03T14:39:06.728Z,70.26
2023-09-03T14:41:34.723Z,70.23
2023-09-03T14:44:03.293Z,70.30
2023-09-03T14:46:31.689Z,70.52
2023-09-03T14:49:00.636Z,70.41
2023-09-03T14:51:28.713Z,69.99
2023-09-03T14:53:57.799Z,69.97
2023-09-03T14:56:25.873Z,70.16
2023-09-03T14:58:53.946Z,69.88
2023-09-03T15:01:25.208Z,69.86
2023-09-03T15:03:53.938Z,69.75
2023-09-03T15:06:23.024Z,69.59
2023-09-03T15:08:51.460Z,69.66
2023-09-03T15:11:19.615Z,69.51
2023-09-03T15:13:54.107Z,69.31
2023-09-03T15:16:22.486Z,69.34
2023-09-03T15:18:50.696Z,69.68
2023-09-03T15:21:19.234Z,69.83
2023-09-03T15:23:47.296Z,70.00
2023-09-03T15:26:15.518Z,70.15
2023-09-03T15:28:43.679Z,70.28
2023-09-03T15:31:12.790Z,70.82
2023-09-03T15:33:41.063Z,70.66
2023-09-03T15:36:09.196Z,70.62
2023-09-03T15:38:38.773Z,69.98
2023-09-03T15:41:07.130Z,70.18
2023-09-03T15:43:35.218Z,69.59
2023-09-03T15:46:03.489Z,69.41
2023-09-03T15:48:31.743Z,69.35
2023-09-03T15:50:59.844Z,69.37
2023-09-03T15:53:29.171Z,69.19
2023-09-03T15:55:57.842Z,69.32
2023-09-03T15:58:26.235Z,69.62
2023-09-03T16:00:54.341Z,69.34
2023-09-03T16:03:23.337Z,69.55
2023-09-03T16:05:51.609Z,69.81
2023-09-03T16:08:20.215Z,69.93
2023-09-03T16:10:51.115Z,70.11
2023-09-03T16:13:20.152Z,70.40
2023-09-03T16:15:48.300Z,70.22
2023-09-03T16:18:16.612Z,70.33
2023-09-03T16:20:45.191Z,70.28
2023-09-03T16:23:13.420Z,70.39
2023-09-03T16:25:41.476Z,70.58
2023-09-03T16:28:10.430Z,70.55
2023-09-03T16:30:38.657Z,70.59
2023-09-03T16:33:06.716Z,70.81
2023-09-03T16:35:36.490Z,71.28
2023-09-03T16:38:05.203Z,70.68
2023-09-03T16:40:33.564Z,70.71
2023-09-03T16:43:01.635Z,70.37
2023-09-03T16:45:29.951Z,70.62
2023-09-03T16:47:58.182Z,70.48
2023-09-03T16:50:26.249Z,70.59
2023-09-03T16:52:54.223Z,70.43
2023-09-03T16:55:22.461Z,70.45
2023-09-03T16:57:50.657Z,70.44
2023-09-03T17:00:18.887Z,70.48
2023-09-03T17:02:47.114Z,70.26
2023-09-03T17:05:15.336Z,70.55
2023-09-03T17:07:44.170Z,70.32
2023-09-03T17:10:12.382Z,70.01
2023-09-03T17:12:40.440Z,70.17
2023-09-03T17:15:09.414Z,70.28
2023-09-03T17:17:40.953Z,70.12
2023-09-03T17:20:11.250Z,70.30
2023-09-03T17:22:39.297Z,70.44
2023-09-03T17:25:07.632Z,70.53
2023-09-03T17:27:35.656Z,70.59
2023-09-03T17:30:03.913Z,70.61
2023-09-03T17:32:32.001Z,70.66
2023-09-03T17:35:00.210Z,70.62
2023-09-03T17:37:28.527Z,70.59
2023-09-03T17:39:56.999Z,70.53
2023-09-03T17:42:25.656Z,70.56
2023-09-03T17:44:53.721Z,70.63
2023-09-03T17:47:21.686Z,70.87
2023-09-03T17:49:49.643Z,71.02
2023-09-03T17:52:17.780Z,70.46
2023-09-03T17:54:45.806Z,70.23
2023-09-03T17:57:14.463Z,69.89
2023-09-03T17:59:42.498Z,69.72
2023-09-03T18:02:10.595Z,69.73
2023-09-03T18:04:41.709Z,69.82
2023-09-03T18:07:09.860Z,69.78
2023-09-03T18:09:38.605Z,69.30
2023-09-03T18:12:07.368Z,69.05
2023-09-03T18:14:35.625Z,68.99
2023-09-03T18:17:03.719Z,68.79
2023-09-03T18:19:32.920Z,68.78
2023-09-03T18:22:00.928Z,68.55
2023-09-03T18:24:28.870Z,68.35
2023-09-03T18:26:57.015Z,68.48
2023-09-03T18:29:25.080Z,68.59
2023-09-03T18:31:53.074Z,68.77
2023-09-03T18:34:21.845Z,68.91
2023-09-03T18:36:49.971Z,68.66
2023-09-03T18:39:18.203Z,67.81
2023-09-03T18:41:46.808Z,67.29
2023-09-03T18:44:14.878Z,67.10
2023-09-03T18:46:44.680Z,66.99
2023-09-03T18:49:14.129Z,66.76
2023-09-03T18:51:46.843Z,66.79
2023-09-03T18:54:14.961Z,66.91
2023-09-03T18:56:42.980Z,66.87
2023-09-03T18:59:11.357Z,66.90
2023-09-03T19:01:39.374Z,66.74
2023-09-03T19:04:07.442Z,66.41
2023-09-03T19:06:35.566Z,66.38
2023-09-03T19:09:04.032Z,66.46
2023-09-03T19:11:32.216Z,66.01
2023-09-03T19:14:00.297Z,65.96
2023-09-03T19:16:29.846Z,65.74
2023-09-03T19:18:57.938Z,65.72
2023-09-03T19:21:27.413Z,65.66
2023-09-03T19:23:55.441Z,65.80
2023-09-03T19:26:23.408Z,66.25
2023-09-03T19:28:51.576Z,66.14
2023-09-03T19:31:20.063Z,66.62
2023-09-03T19:33:48.238Z,66.85
2023-09-03T19:36:16.276Z,66.63
2023-09-03T19:38:44.294Z,66.83
2023-09-03T19:41:12.747Z,67.38
2023-09-03T19:43:40.820Z,67.47
2023-09-03T19:46:08.992Z,67.59
2023-09-03T19:48:37.185Z,67.80
2023-09-03T19:51:05.345Z,67.70
2023-09-03T19:53:34.082Z,67.69
2023-09-03T19:56:05.415Z,68.32
2023-09-03T19:58:34.549Z,68.59
2023-09-03T20:01:05.024Z,68.67
2023-09-03T20:03:34.038Z,68.68
2023-09-03T20:06:02.368Z,68.48
2023-09-03T20:08:31.922Z,68.72
2023-09-03T20:11:06.546Z,69.39
2023-09-03T20:13:34.730Z,69.36
2023-09-03T20:16:03.897Z,69.78
2023-09-03T20:18:32.414Z,70.23
2023-09-03T20:21:01.749Z,70.06
2023-09-03T20:23:30.336Z,70.32
2023-09-03T20:26:00.460Z,70.68
2023-09-03T20:28:43.394Z,70.64
2023-09-03T20:31:12.796Z,70.68
2023-09-03T20:33:40.851Z,70.87
2023-09-03T20:36:09.282Z,70.88
2023-09-03T20:38:37.454Z,70.84
2023-09-03T20:41:06.089Z,71.08
2023-09-03T20:43:35.613Z,70.99
2023-09-03T20:46:04.114Z,70.69
2023-09-03T20:48:33.394Z,70.89
2023-09-03T20:51:02.779Z,71.20
2023-09-03T20:53:31.662Z,71.66
2023-09-03T20:56:00.367Z,71.68
2023-09-03T20:58:28.785Z,71.46
2023-09-03T21:00:57.199Z,71.95
2023-09-03T21:03:25.519Z,72.10
2023-09-03T21:05:55.253Z,72.21
2023-09-03T21:08:25.586Z,72.35
2023-09-03T21:11:01.609Z,72.41
2023-09-03T21:13:30.916Z,72.50
2023-09-03T21:15:59.506Z,72.75
2023-09-03T21:18:29.405Z,72.81
2023-09-03T21:21:02.703Z,72.51
2023-09-03T21:23:32.430Z,72.50
2023-09-03T21:26:02.066Z,72.78
2023-09-03T21:28:30.126Z,72.99
2023-09-03T21:30:58.407Z,73.57
2023-09-03T21:33:26.770Z,73.78
2023-09-03T21:35:54.962Z,74.07
2023-09-03T21:38:23.908Z,74.51
2023-09-03T21:40:52.130Z,74.64
2023-09-03T21:43:20.125Z,74.93
2023-09-03T21:45:48.195Z,75.17
2023-09-03T21:48:16.684Z,75.44
2023-09-03T21:50:44.684Z,75.71
2023-09-03T21:53:12.666Z,76.20
2023-09-03T21:55:40.740Z,76.42
2023-09-03T21:58:08.809Z,76.70
2023-09-03T22:00:38.006Z,77.01
2023-09-03T22:03:06.395Z,77.29
2023-09-03T22:05:34.721Z,77.55
2023-09-03T22:08:02.763Z,77.92
2023-09-03T22:10:30.828Z,78.25
2023-09-03T22:12:59.077Z,78.31
2023-09-03T22:15:27.242Z,78.50
2023-09-03T22:17:55.460Z,78.71
2023-09-03T22:20:25.947Z,78.90
2023-09-03T22:22:54.248Z,79.31
2023-09-03T22:25:22.804Z,79.51
2023-09-03T22:27:50.873Z,79.92
2023-09-03T22:30:18.968Z,80.13
2023-09-03T22:32:47.219Z,80.27
2023-09-03T22:35:15.340Z,80.52
2023-09-03T22:37:44.567Z,80.38
2023-09-03T22:40:13.040Z,80.68
2023-09-03T22:42:41.143Z,80.90
2023-09-03T22:45:09.378Z,80.93
2023-09-03T22:47:37.635Z,80.96
2023-09-03T22:50:06.085Z,81.26
2023-09-03T22:52:34.444Z,81.29
2023-09-03T22:55:02.586Z,81.49
2023-09-03T22:57:30.690Z,81.78
2023-09-03T22:59:58.692Z,81.98
2023-09-03T23:02:26.840Z,82.08
2023-09-03T23:04:54.943Z,82.27
2023-09-03T23:07:23.075Z,82.42
2023-09-03T23:09:53.363Z,82.49
2023-09-03T23:12:21.892Z,82.51
2023-09-03T23:14:50.049Z,82.46
2023-09-03T23:17:18.329Z,82.44
2023-09-03T23:19:46.408Z,82.43
2023-09-03T23:22:14.570Z,82.64
2023-09-03T23:24:42.758Z,82.68
2023-09-03T23:27:10.813Z,82.79
2023-09-03T23:29:38.897Z,82.80
2023-09-03T23:32:06.937Z,82.86
2023-09-03T23:34:36.263Z,82.78
2023-09-03T23:37:05.025Z,82.58
2023-09-03T23:39:33.517Z,82.37
2023-09-03T23:42:01.698Z,82.32
2023-09-03T23:44:29.701Z,82.70
2023-09-03T23:47:07.119Z,82.73
2023-09-03T23:49:41.576Z,82.66
2023-09-03T23:52:09.987Z,82.74
2023-09-03T23:54:38.237Z,82.42
2023-09-03T23:57:06.394Z,82.38
2023-09-03T23:59:34.465Z,82.51
